Time;durP1;ratioP1;P1;durP2;ratioP2;P2;SDS_P1;SDS_P2;PMS_P1;PMS_P2;Temp;Humidity;BMP_temperature;BMP_pressure;BME280_temperature;BME280_humidity;BME280_pressure;Samples;Min_cycle;Max_cycle;Signal;HPM_P1;HPM_P2
2022/03/06 00:01:30;;;;;;;29.17;16.25;;;;;;;;;;5009972;28;20122;-75
2022/03/06 00:03:56;;;;;;;31.92;17.10;;;;;;;;;;5009553;28;20049;-75
2022/03/06 00:06:22;;;;;;;31.38;16.38;;;;;;;;;;5009961;28;20060;-75
2022/03/06 00:08:48;;;;;;;30.80;16.13;;;;;;;;;;5009583;28;20053;-75
2022/03/06 00:11:14;;;;;;;31.42;17.20;;;;;;;;;;4994057;28;20469;-75
2022/03/06 00:13:40;;;;;;;34.88;16.50;;;;;;;;;;5027016;28;20041;-75
2022/03/06 00:16:06;;;;;;;31.15;16.73;;;;;;;;;;5009863;28;20045;-75
2022/03/06 00:18:35;;;;;;;32.60;16.92;;;;;;;;;;5010061;28;20120;-75
2022/03/06 00:21:01;;;;;;;30.30;16.42;;;;;;;;;;5009347;28;20049;-75
2022/03/06 00:23:27;;;;;;;32.53;17.45;;;;;;;;;;5010135;28;20390;-75
2022/03/06 00:25:53;;;;;;;33.92;17.35;;;;;;;;;;4992941;28;20126;-75
2022/03/06 00:28:19;;;;;;;33.58;17.83;;;;;;;;;;5009647;28;20087;-75
2022/03/06 00:30:47;;;;;;;31.50;17.63;;;;;;;;;;5009099;28;20048;-75
2022/03/06 00:33:13;;;;;;;31.08;17.15;;;;;;;;;;5009991;28;20050;-75
2022/03/06 00:35:39;;;;;;;32.92;17.27;;;;;;;;;;5008530;28;20517;-75
2022/03/06 00:38:05;;;;;;;29.35;16.77;;;;;;;;;;5009833;28;20046;-75
2022/03/06 00:40:31;;;;;;;32.03;16.88;;;;;;;;;;5026931;28;20062;-75
2022/03/06 00:42:57;;;;;;;32.70;17.80;;;;;;;;;;5027638;28;20409;-75
2022/03/06 00:45:24;;;;;;;37.22;17.95;;;;;;;;;;5013008;28;20049;-75
2022/03/06 00:47:50;;;;;;;31.63;17.88;;;;;;;;;;5012685;28;20500;-75
2022/03/06 00:50:16;;;;;;;33.08;17.95;;;;;;;;;;5030793;28;20045;-74
2022/03/06 00:52:42;;;;;;;31.67;17.30;;;;;;;;;;4996379;28;20045;-75
2022/03/06 00:55:09;;;;;;;30.25;16.30;;;;;;;;;;5012706;28;20057;-75
2022/03/06 00:57:35;;;;;;;32.58;18.70;;;;;;;;;;5013102;28;20390;-75
2022/03/06 01:00:01;;;;;;;30.95;17.10;;;;;;;;;;5012072;28;20048;-76
2022/03/06 01:02:27;;;;;;;32.33;17.92;;;;;;;;;;5030533;28;20384;-75
2022/03/06 01:04:54;;;;;;;29.83;16.92;;;;;;;;;;5012563;28;20478;-75
2022/03/06 01:07:20;;;;;;;32.33;17.60;;;;;;;;;;5012825;28;20045;-75
2022/03/06 01:09:46;;;;;;;28.80;16.65;;;;;;;;;;5011994;28;20038;-75
2022/03/06 01:12:12;;;;;;;30.92;17.25;;;;;;;;;;5012801;28;20049;-75
2022/03/06 01:14:39;;;;;;;30.02;16.15;;;;;;;;;;5004674;28;20042;-74
2022/03/06 01:17:05;;;;;;;31.80;16.58;;;;;;;;;;4976600;28;20049;-75
2022/03/06 01:19:31;;;;;;;31.45;17.13;;;;;;;;;;4976748;28;20041;-75
2022/03/06 01:21:57;;;;;;;27.42;15.65;;;;;;;;;;5008497;28;20045;-75
2022/03/06 01:24:23;;;;;;;27.65;15.38;;;;;;;;;;5010760;28;20091;-75
2022/03/06 01:26:49;;;;;;;29.33;15.30;;;;;;;;;;5008904;28;20046;-75
2022/03/06 01:29:15;;;;;;;28.48;15.60;;;;;;;;;;4992651;28;20042;-75
2022/03/06 01:31:41;;;;;;;29.05;15.98;;;;;;;;;;4992126;28;20041;-75
2022/03/06 01:34:07;;;;;;;31.13;15.80;;;;;;;;;;4976388;28;20452;-75
2022/03/06 01:36:34;;;;;;;27.30;15.27;;;;;;;;;;4992445;28;20104;-75
2022/03/06 01:39:00;;;;;;;26.67;14.50;;;;;;;;;;4992490;28;20057;-75
2022/03/06 01:41:26;;;;;;;27.05;15.32;;;;;;;;;;4992407;28;20551;-75
2022/03/06 01:43:52;;;;;;;26.23;14.80;;;;;;;;;;4992467;28;20505;-75
2022/03/06 01:46:18;;;;;;;28.63;15.85;;;;;;;;;;4976298;28;20041;-75
2022/03/06 01:48:44;;;;;;;28.77;14.40;;;;;;;;;;4991680;28;20042;-76
2022/03/06 01:51:10;;;;;;;25.58;14.07;;;;;;;;;;5000692;28;20485;-75
2022/03/06 01:53:36;;;;;;;27.95;14.90;;;;;;;;;;5012086;28;20137;-75
2022/03/06 01:56:03;;;;;;;26.50;14.43;;;;;;;;;;5010755;28;20041;-75
2022/03/06 01:58:29;;;;;;;31.23;14.63;;;;;;;;;;5011858;28;20045;-75
2022/03/06 02:00:55;;;;;;;25.42;14.50;;;;;;;;;;5011412;28;20053;-75
2022/03/06 02:03:22;;;;;;;27.77;14.63;;;;;;;;;;4995552;28;20067;-75
2022/03/06 02:05:48;;;;;;;25.63;14.07;;;;;;;;;;5011701;28;20094;-75
2022/03/06 02:08:14;;;;;;;26.98;13.63;;;;;;;;;;4995855;28;20383;-76
2022/03/06 02:10:40;;;;;;;27.00;13.00;;;;;;;;;;5011515;28;20045;-75
2022/03/06 02:13:07;;;;;;;22.70;13.07;;;;;;;;;;5029734;28;20402;-75
2022/03/06 02:15:33;;;;;;;24.88;13.80;;;;;;;;;;5011771;28;20094;-75
2022/03/06 02:17:59;;;;;;;25.52;13.15;;;;;;;;;;5010922;28;20048;-75
2022/03/06 02:20:26;;;;;;;23.70;12.95;;;;;;;;;;5029560;28;20428;-75
2022/03/06 02:22:53;;;;;;;22.98;12.90;;;;;;;;;;4996020;28;20380;-75
2022/03/06 02:25:19;;;;;;;24.65;14.07;;;;;;;;;;5029757;28;20129;-74
2022/03/06 02:27:46;;;;;;;22.25;12.65;;;;;;;;;;5011310;28;20048;-75
2022/03/06 02:30:16;;;;;;;21.65;13.23;;;;;;;;;;5011649;28;20562;-76
2022/03/06 02:32:44;;;;;;;22.58;12.70;;;;;;;;;;5011042;28;20098;-75
2022/03/06 02:35:10;;;;;;;21.33;12.55;;;;;;;;;;5011331;28;20082;-75
2022/03/06 02:37:37;;;;;;;26.02;14.10;;;;;;;;;;5029820;28;20041;-75
2022/03/06 02:40:06;;;;;;;25.83;13.00;;;;;;;;;;5010693;28;20041;-75
2022/03/06 02:42:36;;;;;;;25.02;13.30;;;;;;;;;;4995206;28;20041;-76
2022/03/06 02:45:09;;;;;;;24.10;12.75;;;;;;;;;;5011323;28;20505;-76
2022/03/06 02:47:35;;;;;;;24.00;12.50;;;;;;;;;;5011188;28;20045;-75
2022/03/06 02:50:02;;;;;;;21.30;11.88;;;;;;;;;;5011121;28;20398;-75
2022/03/06 02:52:28;;;;;;;23.33;12.90;;;;;;;;;;5028551;28;20060;-76
2022/03/06 02:54:54;;;;;;;25.55;12.80;;;;;;;;;;5028501;28;20052;-76
2022/03/06 02:57:21;;;;;;;25.38;12.32;;;;;;;;;;5011135;28;20042;-75
2022/03/06 02:59:47;;;;;;;24.05;13.57;;;;;;;;;;5010486;28;20045;-76
2022/03/06 03:02:13;;;;;;;22.05;12.43;;;;;;;;;;5004514;28;20402;-75
2022/03/06 03:04:39;;;;;;;22.95;11.70;;;;;;;;;;5026198;28;20069;-75
2022/03/06 03:07:07;;;;;;;23.27;12.07;;;;;;;;;;5026701;28;20037;-75
2022/03/06 03:09:34;;;;;;;20.60;11.50;;;;;;;;;;4994888;28;20045;-76
2022/03/06 03:12:00;;;;;;;22.15;11.95;;;;;;;;;;5010236;28;20401;-75
2022/03/06 03:14:31;;;;;;;24.77;13.27;;;;;;;;;;5010876;28;20531;-75
2022/03/06 03:16:57;;;;;;;24.33;12.00;;;;;;;;;;5010649;28;20045;-75
2022/03/06 03:19:23;;;;;;;20.88;11.98;;;;;;;;;;5010681;28;20050;-75
2022/03/06 03:21:49;;;;;;;27.50;13.15;;;;;;;;;;4993970;28;20042;-75
2022/03/06 03:24:16;;;;;;;25.45;12.73;;;;;;;;;;5010135;28;20043;-75
2022/03/06 03:26:42;;;;;;;24.23;12.85;;;;;;;;;;5010359;28;20046;-75
2022/03/06 03:29:08;;;;;;;21.65;12.10;;;;;;;;;;5010954;28;20116;-75
2022/03/06 03:31:34;;;;;;;19.60;11.43;;;;;;;;;;5010206;28;20053;-75
2022/03/06 03:34:00;;;;;;;23.23;12.77;;;;;;;;;;5009726;28;20053;-75
2022/03/06 03:36:26;;;;;;;21.80;12.05;;;;;;;;;;5027839;28;20053;-75
2022/03/06 03:38:52;;;;;;;21.20;11.82;;;;;;;;;;5010126;28;20132;-75
2022/03/06 03:41:18;;;;;;;19.95;11.38;;;;;;;;;;5010230;28;20107;-75
2022/03/06 03:43:44;;;;;;;23.10;12.52;;;;;;;;;;5010284;28;20399;-75
2022/03/06 03:46:11;;;;;;;22.85;12.65;;;;;;;;;;5010679;28;20595;-75
2022/03/06 03:48:37;;;;;;;21.00;12.15;;;;;;;;;;4994019;28;20049;-75
2022/03/06 03:51:04;;;;;;;24.08;12.82;;;;;;;;;;5009900;28;20043;-75
2022/03/06 03:53:30;;;;;;;22.00;11.77;;;;;;;;;;5010165;28;20057;-75
2022/03/06 03:55:56;;;;;;;20.50;11.82;;;;;;;;;;5010252;28;20049;-75
2022/03/06 03:58:22;;;;;;;23.77;13.13;;;;;;;;;;5010254;28;20041;-75
2022/03/06 04:00:57;;;;;;;24.02;12.50;;;;;;;;;;5027269;28;20029;-75
2022/03/06 04:03:25;;;;;;;21.48;12.52;;;;;;;;;;5010121;28;20079;-75
2022/03/06 04:05:51;;;;;;;21.83;12.30;;;;;;;;;;5010020;28;20474;-75
2022/03/06 04:08:17;;;;;;;25.33;12.55;;;;;;;;;;5009810;28;20196;-76
2022/03/06 04:10:44;;;;;;;21.38;12.00;;;;;;;;;;5009468;28;20130;-75
2022/03/06 04:13:10;;;;;;;24.98;12.85;;;;;;;;;;5027698;28;20045;-75
2022/03/06 04:15:36;;;;;;;22.60;11.98;;;;;;;;;;5010000;28;20050;-75
2022/03/06 04:18:02;;;;;;;20.38;11.75;;;;;;;;;;5009291;28;20509;-75
2022/03/06 04:20:28;;;;;;;21.92;12.48;;;;;;;;;;5009847;28;20049;-75
2022/03/06 04:22:55;;;;;;;22.48;12.23;;;;;;;;;;5009483;28;20049;-75
2022/03/06 04:25:22;;;;;;;18.58;11.52;;;;;;;;;;5009895;28;20090;-75
2022/03/06 04:27:48;;;;;;;21.40;11.88;;;;;;;;;;4992999;28;20058;-75
2022/03/06 04:30:14;;;;;;;22.08;12.10;;;;;;;;;;5009207;28;20072;-76
2022/03/06 04:32:40;;;;;;;17.60;11.10;;;;;;;;;;5009378;28;20042;-75
2022/03/06 04:35:07;;;;;;;22.25;11.65;;;;;;;;;;4993088;28;20067;-75
2022/03/06 04:37:33;;;;;;;20.25;11.32;;;;;;;;;;4992994;28;20042;-75
2022/03/06 04:39:59;;;;;;;19.80;11.65;;;;;;;;;;5009409;28;20042;-75
2022/03/06 04:42:25;;;;;;;23.08;10.73;;;;;;;;;;5009923;28;20647;-75
2022/03/06 04:44:51;;;;;;;22.25;11.32;;;;;;;;;;5009293;28;20501;-75
2022/03/06 04:47:18;;;;;;;21.27;11.40;;;;;;;;;;5009633;28;20482;-75
2022/03/06 04:49:44;;;;;;;18.42;10.32;;;;;;;;;;5009217;28;20045;-75
2022/03/06 04:52:10;;;;;;;19.80;10.73;;;;;;;;;;5006137;28;20509;-75
2022/03/06 04:54:36;;;;;;;16.80;9.93;;;;;;;;;;5006029;28;20038;-76
2022/03/06 04:57:02;;;;;;;17.10;9.40;;;;;;;;;;4989336;28;20128;-75
2022/03/06 04:59:29;;;;;;;15.73;9.57;;;;;;;;;;5006517;28;20176;-75
2022/03/06 05:01:55;;;;;;;17.83;10.88;;;;;;;;;;5010646;28;20514;-75
2022/03/06 05:04:21;;;;;;;17.80;9.88;;;;;;;;;;5008632;28;20125;-75
2022/03/06 05:06:47;;;;;;;16.15;9.30;;;;;;;;;;5005417;28;20038;-75
2022/03/06 05:09:13;;;;;;;17.80;9.52;;;;;;;;;;5005975;28;20038;-75
2022/03/06 05:11:39;;;;;;;15.30;8.90;;;;;;;;;;4989233;28;20049;-74
2022/03/06 05:14:06;;;;;;;18.25;9.55;;;;;;;;;;5007140;28;20044;-75
2022/03/06 05:16:32;;;;;;;16.60;9.70;;;;;;;;;;5006060;28;20046;-75
2022/03/06 05:18:59;;;;;;;15.18;8.57;;;;;;;;;;4989875;28;20479;-74
2022/03/06 05:21:25;;;;;;;17.80;9.50;;;;;;;;;;5006965;28;20090;-75
2022/03/06 05:23:52;;;;;;;18.20;10.00;;;;;;;;;;5005597;28;20057;-75
2022/03/06 05:26:18;;;;;;;16.63;9.70;;;;;;;;;;5005663;28;20078;-75
2022/03/06 05:28:44;;;;;;;18.40;9.07;;;;;;;;;;4988880;28;20046;-75
2022/03/06 05:31:10;;;;;;;16.70;8.45;;;;;;;;;;4991438;28;20053;-75
2022/03/06 05:33:36;;;;;;;15.27;8.93;;;;;;;;;;4992689;28;20547;-75
2022/03/06 05:36:03;;;;;;;15.75;8.60;;;;;;;;;;5008468;28;20057;-75
2022/03/06 05:38:29;;;;;;;16.77;8.90;;;;;;;;;;5009181;28;20137;-75
2022/03/06 05:40:55;;;;;;;17.00;9.05;;;;;;;;;;5008524;28;20046;-75
2022/03/06 05:43:21;;;;;;;17.17;8.35;;;;;;;;;;5008968;28;20379;-75
2022/03/06 05:45:52;;;;;;;15.10;8.68;;;;;;;;;;5008788;28;20050;-75
2022/03/06 05:48:21;;;;;;;15.85;8.43;;;;;;;;;;5010053;28;20041;-75
2022/03/06 05:50:48;;;;;;;16.27;8.52;;;;;;;;;;4995294;28;20045;-75
2022/03/06 05:53:14;;;;;;;17.77;8.65;;;;;;;;;;4995491;28;20128;-75
2022/03/06 05:55:40;;;;;;;15.65;8.43;;;;;;;;;;5011808;28;20045;-75
2022/03/06 05:58:06;;;;;;;15.90;8.30;;;;;;;;;;5011700;28;20049;-76
2022/03/06 06:00:32;;;;;;;19.08;8.52;;;;;;;;;;5029875;28;20505;-75
2022/03/06 06:02:59;;;;;;;17.48;8.95;;;;;;;;;;4995411;28;20045;-75
2022/03/06 06:05:25;;;;;;;15.77;9.05;;;;;;;;;;5011725;28;20041;-75
2022/03/06 06:07:51;;;;;;;16.55;8.32;;;;;;;;;;5011350;28;20557;-75
2022/03/06 06:10:18;;;;;;;14.88;7.82;;;;;;;;;;5011672;28;20049;-76
2022/03/06 06:12:44;;;;;;;15.57;8.10;;;;;;;;;;5011227;28;20565;-75
2022/03/06 06:15:11;;;;;;;15.60;8.10;;;;;;;;;;5029191;28;20038;-76
2022/03/06 06:17:37;;;;;;;14.85;8.80;;;;;;;;;;5011449;28;20124;-75
2022/03/06 06:20:07;;;;;;;14.02;8.05;;;;;;;;;;5011604;28;20486;-75
2022/03/06 06:22:34;;;;;;;18.98;8.95;;;;;;;;;;5011571;28;20053;-76
2022/03/06 06:25:00;;;;;;;15.23;8.15;;;;;;;;;;5011463;28;20064;-75
2022/03/06 06:27:26;;;;;;;13.98;8.32;;;;;;;;;;4995608;28;20041;-76
2022/03/06 06:29:53;;;;;;;15.00;8.15;;;;;;;;;;5010917;28;20077;-75
2022/03/06 06:32:19;;;;;;;16.77;8.27;;;;;;;;;;4995100;28;20524;-75
2022/03/06 06:34:45;;;;;;;14.68;7.75;;;;;;;;;;5010808;28;20060;-76
2022/03/06 06:37:11;;;;;;;13.85;8.10;;;;;;;;;;5011146;28;20712;-75
2022/03/06 06:39:38;;;;;;;13.90;8.25;;;;;;;;;;5011603;28;20053;-75
2022/03/06 06:42:05;;;;;;;15.82;7.60;;;;;;;;;;5010748;28;20090;-75
2022/03/06 06:44:31;;;;;;;15.23;7.68;;;;;;;;;;5011025;28;20085;-75
2022/03/06 06:46:57;;;;;;;13.88;7.68;;;;;;;;;;5011201;28;20488;-75
2022/03/06 06:49:23;;;;;;;14.95;8.23;;;;;;;;;;5028723;28;20037;-75
2022/03/06 06:51:49;;;;;;;14.18;7.80;;;;;;;;;;5011152;28;20042;-75
2022/03/06 06:54:15;;;;;;;13.20;7.43;;;;;;;;;;5010452;28;20077;-75
2022/03/06 06:56:42;;;;;;;13.55;7.40;;;;;;;;;;5028843;28;20094;-75
2022/03/06 06:59:08;;;;;;;11.70;6.38;;;;;;;;;;5010708;28;20125;-75
2022/03/06 07:01:34;;;;;;;13.32;7.07;;;;;;;;;;5028498;28;20098;-75
2022/03/06 07:04:01;;;;;;;15.43;7.10;;;;;;;;;;5010574;28;20042;-75
2022/03/06 07:06:27;;;;;;;12.50;6.80;;;;;;;;;;5028504;28;20309;-75
2022/03/06 07:08:53;;;;;;;11.23;6.60;;;;;;;;;;5028206;28;20045;-75
2022/03/06 07:11:19;;;;;;;12.43;6.78;;;;;;;;;;4994647;28;20050;-75
2022/03/06 07:13:45;;;;;;;12.70;6.75;;;;;;;;;;5010597;28;20052;-75
2022/03/06 07:16:11;;;;;;;12.93;6.45;;;;;;;;;;5028985;28;20090;-75
2022/03/06 07:18:37;;;;;;;12.50;6.60;;;;;;;;;;5010842;28;20052;-75
2022/03/06 07:21:03;;;;;;;11.52;6.72;;;;;;;;;;5010594;28;20137;-76
2022/03/06 07:23:30;;;;;;;10.32;5.60;;;;;;;;;;5010540;28;20049;-76
2022/03/06 07:25:56;;;;;;;13.07;5.43;;;;;;;;;;5010835;28;20045;-76
2022/03/06 07:28:22;;;;;;;8.65;4.97;;;;;;;;;;5028371;28;20045;-76
2022/03/06 07:30:48;;;;;;;7.78;4.50;;;;;;;;;;4977759;28;20045;-76
2022/03/06 07:33:14;;;;;;;9.82;5.15;;;;;;;;;;5010792;28;20383;-76
2022/03/06 07:35:41;;;;;;;10.68;5.00;;;;;;;;;;5027810;28;20041;-76
2022/03/06 07:38:07;;;;;;;9.00;4.57;;;;;;;;;;5028407;28;20136;-75
2022/03/06 07:40:33;;;;;;;10.20;5.28;;;;;;;;;;5009988;28;20161;-76
2022/03/06 07:42:59;;;;;;;8.45;4.65;;;;;;;;;;5010023;28;20053;-75
2022/03/06 07:45:26;;;;;;;6.80;4.82;;;;;;;;;;4993779;28;20069;-76
2022/03/06 07:47:52;;;;;;;7.95;4.80;;;;;;;;;;5009894;28;20120;-76
2022/03/06 07:50:18;;;;;;;9.48;4.28;;;;;;;;;;5010061;28;20045;-76
2022/03/06 07:52:44;;;;;;;7.93;4.10;;;;;;;;;;5009439;28;20437;-75
2022/03/06 07:55:11;;;;;;;8.10;4.32;;;;;;;;;;4993576;28;20038;-76
2022/03/06 07:57:37;;;;;;;6.82;4.10;;;;;;;;;;4993585;28;20041;-75
2022/03/06 08:00:05;;;;;;;7.20;4.20;;;;;;;;;;5027478;28;20050;-75
2022/03/06 08:02:31;;;;;;;5.82;3.65;;;;;;;;;;5009611;28;20401;-75
2022/03/06 08:04:57;;;;;;;7.20;4.05;;;;;;;;;;5009586;28;20049;-75
2022/03/06 08:07:23;;;;;;;8.50;3.85;;;;;;;;;;5009940;28;20132;-75
2022/03/06 08:09:49;;;;;;;7.53;3.90;;;;;;;;;;5009463;28;20045;-75
2022/03/06 08:12:15;;;;;;;7.20;4.25;;;;;;;;;;5027126;28;20060;-75
2022/03/06 08:14:41;;;;;;;8.20;4.13;;;;;;;;;;5009554;28;20446;-75
2022/03/06 08:17:07;;;;;;;6.85;3.83;;;;;;;;;;5010119;28;20053;-75
2022/03/06 08:19:33;;;;;;;4.93;3.55;;;;;;;;;;4993592;28;20467;-74
2022/03/06 08:21:59;;;;;;;6.53;3.60;;;;;;;;;;5009479;28;20041;-75
2022/03/06 08:24:26;;;;;;;5.95;3.47;;;;;;;;;;5009346;28;20046;-75
2022/03/06 08:26:52;;;;;;;5.35;3.28;;;;;;;;;;5009303;28;20084;-75
2022/03/06 08:29:18;;;;;;;4.80;3.20;;;;;;;;;;5009633;28;20490;-75
2022/03/06 08:31:44;;;;;;;6.28;3.30;;;;;;;;;;5009335;28;20383;-75
2022/03/06 08:34:10;;;;;;;6.32;3.80;;;;;;;;;;5027368;28;20552;-75
2022/03/06 08:36:37;;;;;;;5.55;2.97;;;;;;;;;;5009110;28;20526;-75
2022/03/06 08:39:04;;;;;;;4.55;2.90;;;;;;;;;;5008348;28;20054;-75
2022/03/06 08:41:30;;;;;;;4.18;2.63;;;;;;;;;;5009049;28;20155;-75
2022/03/06 08:43:56;;;;;;;4.53;3.00;;;;;;;;;;4993146;28;20455;-75
2022/03/06 08:46:22;;;;;;;6.00;2.80;;;;;;;;;;5009217;28;20038;-75
2022/03/06 08:48:48;;;;;;;6.97;3.00;;;;;;;;;;4992704;28;20117;-75
2022/03/06 08:51:15;;;;;;;7.00;2.85;;;;;;;;;;5026807;28;20045;-75
2022/03/06 08:53:41;;;;;;;4.25;2.60;;;;;;;;;;5026951;28;20518;-75
2022/03/06 08:56:07;;;;;;;5.75;2.80;;;;;;;;;;5009114;28;20478;-75
2022/03/06 08:58:35;;;;;;;5.75;2.60;;;;;;;;;;4992975;28;20056;-75
2022/03/06 09:01:01;;;;;;;5.22;2.80;;;;;;;;;;4993137;28;20048;-75
2022/03/06 09:03:27;;;;;;;4.88;2.50;;;;;;;;;;5026785;28;20056;-75
2022/03/06 09:05:53;;;;;;;4.53;2.15;;;;;;;;;;5010634;28;20079;-75
2022/03/06 09:08:19;;;;;;;3.70;2.40;;;;;;;;;;5012633;28;20190;-76
2022/03/06 09:10:45;;;;;;;5.00;2.42;;;;;;;;;;5012062;28;20060;-76
2022/03/06 09:13:11;;;;;;;5.10;2.28;;;;;;;;;;5013041;28;20402;-75
2022/03/06 09:15:37;;;;;;;4.38;2.33;;;;;;;;;;5012012;28;20102;-75
2022/03/06 09:18:04;;;;;;;4.15;2.20;;;;;;;;;;5012526;28;20049;-75
2022/03/06 09:20:30;;;;;;;3.50;2.13;;;;;;;;;;5029920;28;20102;-74
2022/03/06 09:22:56;;;;;;;4.93;2.50;;;;;;;;;;5012408;28;20062;-75
2022/03/06 09:25:22;;;;;;;4.20;2.40;;;;;;;;;;5012275;28;20482;-74
2022/03/06 09:27:48;;;;;;;3.97;2.40;;;;;;;;;;5012254;28;20482;-74
2022/03/06 09:30:15;;;;;;;4.00;2.40;;;;;;;;;;5012557;28;20045;-74
2022/03/06 09:32:41;;;;;;;4.88;2.20;;;;;;;;;;5030246;28;20038;-73
2022/03/06 09:35:08;;;;;;;6.68;2.40;;;;;;;;;;5029630;28;20406;-74
2022/03/06 09:37:34;;;;;;;3.70;2.20;;;;;;;;;;4995885;28;20053;-74
2022/03/06 09:40:01;;;;;;;4.03;2.20;;;;;;;;;;5011790;28;20045;-75
2022/03/06 09:42:28;;;;;;;3.95;2.20;;;;;;;;;;5029672;28;20133;-74
2022/03/06 09:44:54;;;;;;;5.82;2.10;;;;;;;;;;5011991;28;20523;-74
2022/03/06 09:47:20;;;;;;;3.17;1.90;;;;;;;;;;5012303;28;20120;-75
2022/03/06 09:49:47;;;;;;;4.50;2.00;;;;;;;;;;5029443;28;20133;-74
2022/03/06 09:52:13;;;;;;;3.53;2.10;;;;;;;;;;5011972;28;20056;-75
2022/03/06 09:54:40;;;;;;;4.07;2.10;;;;;;;;;;5011565;28;20049;-75
2022/03/06 09:57:06;;;;;;;3.33;1.80;;;;;;;;;;5011524;28;20045;-74
2022/03/06 09:59:32;;;;;;;3.80;2.00;;;;;;;;;;4995558;28;20049;-74
2022/03/06 10:02:02;;;;;;;3.53;1.90;;;;;;;;;;5011448;28;20034;-74
2022/03/06 10:04:30;;;;;;;4.72;2.20;;;;;;;;;;5029344;28;20129;-73
2022/03/06 10:07:05;;;;;;;3.60;2.08;;;;;;;;;;5028712;28;20041;-74
2022/03/06 10:09:32;;;;;;;3.58;2.22;;;;;;;;;;5011657;28;20098;-75
2022/03/06 10:11:58;;;;;;;4.80;2.60;;;;;;;;;;4994558;28;20049;-75
2022/03/06 10:14:34;;;;;;;4.60;2.10;;;;;;;;;;5029667;28;20072;-75
2022/03/06 10:17:10;;;;;;;4.07;2.30;;;;;;;;;;5028378;28;20052;-75
2022/03/06 10:19:56;;;;;;;6.03;2.10;;;;;;;;;;5029055;28;20502;-75
2022/03/06 10:22:24;;;;;;;3.47;2.10;;;;;;;;;;5029013;28;20037;-76
2022/03/06 10:24:51;;;;;;;5.45;2.20;;;;;;;;;;5028991;28;20041;-74
2022/03/06 10:27:37;;;;;;;4.57;1.90;;;;;;;;;;5011325;28;20037;-75
2022/03/06 10:30:21;;;;;;;5.20;1.88;;;;;;;;;;5028861;28;20387;-75
2022/03/06 10:32:47;;;;;;;4.30;2.10;;;;;;;;;;5011115;28;20125;-75
2022/03/06 10:35:14;;;;;;;5.30;2.33;;;;;;;;;;5029889;28;20553;-74
2022/03/06 10:37:40;;;;;;;4.93;2.33;;;;;;;;;;4990496;28;20054;-73
2022/03/06 10:40:07;;;;;;;5.03;2.10;;;;;;;;;;4988326;28;20049;-74
2022/03/06 10:42:34;;;;;;;4.38;2.40;;;;;;;;;;4971995;28;20039;-74
2022/03/06 10:45:00;;;;;;;3.45;1.92;;;;;;;;;;4989699;28;20058;-74
2022/03/06 10:47:26;;;;;;;4.10;2.00;;;;;;;;;;4989747;28;20117;-74
2022/03/06 10:49:59;;;;;;;3.78;2.20;;;;;;;;;;4971502;28;20045;-74
2022/03/06 10:52:25;;;;;;;3.35;2.03;;;;;;;;;;4988317;28;20042;-74
2022/03/06 10:54:55;;;;;;;4.25;1.92;;;;;;;;;;4990610;28;20445;-75
2022/03/06 10:57:22;;;;;;;3.38;2.03;;;;;;;;;;4988100;28;20146;-74
2022/03/06 10:59:49;;;;;;;4.85;2.05;;;;;;;;;;4987833;28;20050;-76
2022/03/06 11:02:16;;;;;;;4.75;2.30;;;;;;;;;;4972171;28;20121;-75
2022/03/06 11:04:45;;;;;;;2.85;2.20;;;;;;;;;;4988291;28;20507;-74
2022/03/06 11:07:12;;;;;;;3.67;2.05;;;;;;;;;;4988008;28;20122;-73
2022/03/06 11:09:39;;;;;;;4.10;2.10;;;;;;;;;;4988167;28;20495;-74
2022/03/06 11:12:06;;;;;;;3.00;2.00;;;;;;;;;;4987818;28;20042;-75
2022/03/06 11:14:32;;;;;;;5.07;2.10;;;;;;;;;;4989309;28;20081;-74
2022/03/06 11:16:59;;;;;;;3.25;2.00;;;;;;;;;;4988495;28;20126;-75
2022/03/06 11:19:28;;;;;;;5.03;2.30;;;;;;;;;;4988341;28;20495;-74
2022/03/06 11:22:03;;;;;;;3.70;2.05;;;;;;;;;;4987562;28;20163;-74
2022/03/06 11:24:30;;;;;;;3.20;2.00;;;;;;;;;;4988148;28;20039;-74
2022/03/06 11:26:56;;;;;;;4.65;2.13;;;;;;;;;;4986759;28;20042;-74
2022/03/06 11:29:45;;;;;;;4.47;2.33;;;;;;;;;;4988346;28;20038;-74
2022/03/06 11:32:11;;;;;;;4.30;2.10;;;;;;;;;;4987166;28;20085;-74
2022/03/06 11:34:39;;;;;;;5.07;2.65;;;;;;;;;;4989189;28;20376;-76
2022/03/06 11:37:15;;;;;;;4.05;2.17;;;;;;;;;;5002625;28;20098;-74
2022/03/06 11:39:42;;;;;;;3.50;2.35;;;;;;;;;;5010135;28;20049;-73
2022/03/06 11:42:09;;;;;;;6.10;2.60;;;;;;;;;;5010114;28;20045;-74
2022/03/06 11:44:37;;;;;;;4.47;2.20;;;;;;;;;;5010521;28;20037;-74
2022/03/06 11:47:21;;;;;;;3.70;2.35;;;;;;;;;;4993577;28;20049;-74
2022/03/06 11:49:59;;;;;;;3.90;2.30;;;;;;;;;;5028396;28;20131;-74
2022/03/06 11:52:25;;;;;;;4.03;2.30;;;;;;;;;;5010267;28;20049;-74
2022/03/06 11:54:51;;;;;;;3.67;2.25;;;;;;;;;;5009938;28;20375;-74
2022/03/06 11:57:36;;;;;;;3.50;2.10;;;;;;;;;;5009911;28;20056;-74
2022/03/06 12:00:15;;;;;;;4.35;2.20;;;;;;;;;;5009000;28;20101;-74
2022/03/06 12:02:52;;;;;;;4.07;2.45;;;;;;;;;;5028113;28;20046;-77
2022/03/06 12:05:20;;;;;;;4.95;2.47;;;;;;;;;;5010207;28;20045;-74
2022/03/06 12:07:46;;;;;;;4.88;2.40;;;;;;;;;;5027579;28;20116;-74
2022/03/06 12:10:14;;;;;;;4.00;2.30;;;;;;;;;;5027337;28;20045;-78
2022/03/06 12:12:40;;;;;;;7.03;3.55;;;;;;;;;;5010466;28;20390;-78
2022/03/06 12:15:17;;;;;;;5.63;2.80;;;;;;;;;;5010338;28;20128;-76
2022/03/06 12:17:43;;;;;;;5.45;2.55;;;;;;;;;;5009850;28;20141;-77
2022/03/06 12:20:09;;;;;;;5.38;2.50;;;;;;;;;;4993317;28;20526;-77
2022/03/06 12:22:36;;;;;;;4.65;2.38;;;;;;;;;;5010091;28;20042;-75
2022/03/06 12:25:08;;;;;;;4.90;2.50;;;;;;;;;;5027352;28;20033;-74
2022/03/06 12:27:35;;;;;;;4.80;2.40;;;;;;;;;;5009854;28;20084;-74
2022/03/06 12:30:03;;;;;;;4.60;2.60;;;;;;;;;;5009381;28;20483;-75
2022/03/06 12:32:40;;;;;;;4.45;2.72;;;;;;;;;;5027287;28;20113;-75
2022/03/06 12:35:19;;;;;;;5.18;2.42;;;;;;;;;;5009332;28;20475;-74
2022/03/06 12:37:59;;;;;;;4.88;2.40;;;;;;;;;;5009433;28;20061;-73
2022/03/06 12:40:26;;;;;;;5.95;2.63;;;;;;;;;;5012105;28;20041;-73
2022/03/06 12:43:15;;;;;;;5.63;2.95;;;;;;;;;;5012621;28;20121;-75
2022/03/06 12:45:42;;;;;;;5.50;3.13;;;;;;;;;;5012603;28;20103;-73
2022/03/06 12:48:08;;;;;;;4.00;2.80;;;;;;;;;;5030287;28;20033;-74
2022/03/06 12:50:35;;;;;;;5.78;2.80;;;;;;;;;;4996837;28;20120;-74
2022/03/06 12:53:01;;;;;;;5.32;2.80;;;;;;;;;;5013330;28;20041;-74
2022/03/06 12:55:27;;;;;;;4.70;2.67;;;;;;;;;;5012793;28;20053;-74
2022/03/06 12:57:58;;;;;;;5.07;2.70;;;;;;;;;;5011787;28;20041;-73
2022/03/06 13:00:28;;;;;;;5.40;2.40;;;;;;;;;;4996372;28;20113;-74
2022/03/06 13:02:56;;;;;;;5.72;2.65;;;;;;;;;;5012406;28;20046;-74
2022/03/06 13:05:23;;;;;;;4.63;2.80;;;;;;;;;;5012788;28;20045;-74
2022/03/06 13:07:49;;;;;;;4.22;2.60;;;;;;;;;;4996454;28;20464;-74
2022/03/06 13:10:18;;;;;;;5.43;2.72;;;;;;;;;;5012564;28;20114;-73
2022/03/06 13:12:45;;;;;;;4.97;2.63;;;;;;;;;;5030750;28;20041;-73
2022/03/06 13:15:14;;;;;;;5.70;2.88;;;;;;;;;;5011959;28;20048;-74
2022/03/06 13:17:44;;;;;;;6.63;2.70;;;;;;;;;;5029803;28;20495;-74
2022/03/06 13:20:11;;;;;;;6.43;2.90;;;;;;;;;;5012489;28;20075;-74
2022/03/06 13:22:37;;;;;;;5.30;2.53;;;;;;;;;;5012719;28;20038;-74
2022/03/06 13:25:05;;;;;;;6.70;2.85;;;;;;;;;;5030441;28;20122;-74
2022/03/06 13:27:35;;;;;;;6.78;3.05;;;;;;;;;;5012787;28;20037;-73
2022/03/06 13:30:12;;;;;;;5.45;2.90;;;;;;;;;;5029559;28;20064;-73
2022/03/06 13:32:48;;;;;;;5.05;2.88;;;;;;;;;;5012674;28;20046;-73
2022/03/06 13:35:29;;;;;;;6.35;2.90;;;;;;;;;;5012178;28;20037;-73
2022/03/06 13:37:56;;;;;;;6.47;3.50;;;;;;;;;;5006468;28;20062;-74
2022/03/06 13:40:24;;;;;;;5.72;3.22;;;;;;;;;;5008637;28;20137;-74
2022/03/06 13:42:50;;;;;;;6.20;2.85;;;;;;;;;;5008192;28;20121;-74
2022/03/06 13:45:16;;;;;;;6.97;3.20;;;;;;;;;;5008791;28;20550;-73
2022/03/06 13:47:47;;;;;;;5.78;3.03;;;;;;;;;;5008523;28;20132;-73
2022/03/06 13:50:18;;;;;;;7.45;3.17;;;;;;;;;;5007972;28;20046;-73
2022/03/06 13:52:44;;;;;;;7.65;3.20;;;;;;;;;;5009658;28;20042;-73
2022/03/06 13:55:11;;;;;;;5.68;3.08;;;;;;;;;;5009717;28;20606;-73
2022/03/06 13:57:37;;;;;;;4.97;2.92;;;;;;;;;;4992080;28;20042;-74
2022/03/06 14:00:23;;;;;;;5.68;3.00;;;;;;;;;;5009552;28;20053;-74
2022/03/06 14:02:58;;;;;;;4.55;2.85;;;;;;;;;;5009655;28;20580;-74
2022/03/06 14:05:29;;;;;;;6.28;3.15;;;;;;;;;;5008576;28;20065;-73
2022/03/06 14:07:55;;;;;;;4.63;2.75;;;;;;;;;;5008081;28;20092;-73
2022/03/06 14:10:38;;;;;;;5.53;3.20;;;;;;;;;;5009618;28;20038;-74
2022/03/06 14:13:04;;;;;;;6.85;3.08;;;;;;;;;;5008165;28;20064;-73
2022/03/06 14:15:33;;;;;;;5.90;3.00;;;;;;;;;;5008376;28;20038;-74
2022/03/06 14:17:59;;;;;;;5.88;2.70;;;;;;;;;;5007820;28;20053;-74
2022/03/06 14:20:25;;;;;;;6.13;2.60;;;;;;;;;;5009405;28;20042;-74
2022/03/06 14:22:52;;;;;;;7.57;3.03;;;;;;;;;;5009644;28;20382;-74
2022/03/06 14:25:18;;;;;;;5.07;2.72;;;;;;;;;;5008174;28;20052;-74
2022/03/06 14:27:44;;;;;;;7.18;2.58;;;;;;;;;;5008291;28;20041;-74
2022/03/06 14:30:10;;;;;;;5.53;2.80;;;;;;;;;;4991883;28;20491;-73
2022/03/06 14:32:36;;;;;;;5.05;2.60;;;;;;;;;;5009372;28;20053;-74